createdAt,value
2017-07-10T00:01:46.887Z,99.99
2017-07-10T00:06:42.902Z,99.99
2017-07-10T00:11:39.450Z,99.99
2017-07-10T00:16:36.511Z,99.99
2017-07-10T00:26:33.404Z,99.99
2017-07-10T00:31:30.883Z,99.99
2017-07-10T00:42:38.122Z,99.99
2017-07-10T00:47:36.543Z,99.99
2017-07-10T00:52:32.862Z,99.99
2017-07-10T00:57:30.626Z,99.99
2017-07-10T01:02:25.932Z,99.99
2017-07-10T01:07:21.850Z,99.99
2017-07-10T01:12:17.934Z,99.99
2017-07-10T01:17:13.569Z,99.99
2017-07-10T01:22:09.459Z,99.99
2017-07-10T01:27:08.030Z,99.99
2017-07-10T01:32:05.270Z,99.99
2017-07-10T01:37:00.954Z,99.99
2017-07-10T01:41:57.123Z,99.99
2017-07-10T01:46:53.950Z,99.99
2017-07-10T01:51:50.889Z,99.99
2017-07-10T01:56:47.418Z,99.99
2017-07-10T02:01:45.329Z,99.99
2017-07-10T02:06:46.642Z,99.99
2017-07-10T02:11:43.619Z,99.99
2017-07-10T02:16:39.957Z,99.99
2017-07-10T02:21:36.716Z,99.99
2017-07-10T02:26:32.427Z,99.99
2017-07-10T02:31:28.834Z,99.99
2017-07-10T02:36:25.208Z,99.99
2017-07-10T02:41:22.962Z,99.99
2017-07-10T02:46:21.147Z,99.99
2017-07-10T02:51:17.414Z,99.99
2017-07-10T02:56:13.093Z,99.99
2017-07-10T03:01:10.085Z,99.99
2017-07-10T03:06:05.841Z,99.99
2017-07-10T03:11:03.395Z,99.99
2017-07-10T03:15:59.323Z,99.99
2017-07-10T03:20:55.652Z,99.99
2017-07-10T03:25:51.697Z,99.99
2017-07-10T03:30:47.732Z,99.99
2017-07-10T03:35:44.798Z,99.99
2017-07-10T03:40:42.362Z,99.99
2017-07-10T03:45:38.974Z,99.99
2017-07-10T03:50:35.623Z,99.99
2017-07-10T03:55:32.795Z,99.99
2017-07-10T04:00:29.598Z,99.99
2017-07-10T04:05:25.687Z,99.99
2017-07-10T04:10:22.574Z,99.99
2017-07-10T04:15:19.215Z,99.99
2017-07-10T04:20:16.341Z,99.99
2017-07-10T04:25:12.050Z,99.99
2017-07-10T04:30:10.106Z,99.99
2017-07-10T04:35:05.642Z,99.99
2017-07-10T04:40:02.865Z,99.99
2017-07-10T04:44:59.440Z,99.99
2017-07-10T04:49:57.435Z,99.99
2017-07-10T04:54:55.040Z,99.99
2017-07-10T04:59:51.678Z,99.99
2017-07-10T05:04:47.538Z,99.99
2017-07-10T05:09:43.460Z,99.99
2017-07-10T05:14:40.011Z,99.99
2017-07-10T05:19:36.973Z,99.99
2017-07-10T05:24:32.407Z,99.99
2017-07-10T05:29:28.460Z,99.99
2017-07-10T05:34:24.524Z,99.99
2017-07-10T05:39:21.446Z,99.99
2017-07-10T05:44:17.908Z,99.99
2017-07-10T05:49:14.729Z,99.99
2017-07-10T05:54:10.370Z,99.99
2017-07-10T05:59:06.309Z,99.99
2017-07-10T06:04:02.231Z,99.99
2017-07-10T06:08:58.461Z,99.99
2017-07-10T06:13:55.637Z,99.99
2017-07-10T06:18:51.482Z,99.99
2017-07-10T06:23:48.280Z,99.99
2017-07-10T06:28:45.666Z,99.99
2017-07-10T06:33:41.758Z,99.99
2017-07-10T06:38:37.421Z,99.99
2017-07-10T06:48:37.525Z,99.99
2017-07-10T06:53:33.397Z,99.99
2017-07-10T06:58:29.449Z,99.99
2017-07-10T07:03:25.690Z,99.99
2017-07-10T07:08:22.197Z,99.99
2017-07-10T07:13:19.410Z,99.99
2017-07-10T07:18:15.164Z,99.99
2017-07-10T07:23:11.170Z,99.99
2017-07-10T07:28:08.839Z,99.99
2017-07-10T07:33:04.501Z,99.99
2017-07-10T07:38:01.442Z,99.99
2017-07-10T07:42:56.964Z,99.99
2017-07-10T07:47:53.714Z,99.99
2017-07-10T07:52:49.209Z,99.99
2017-07-10T07:57:45.082Z,99.99
2017-07-10T08:02:42.083Z,99.99
2017-07-10T08:07:38.017Z,99.99
2017-07-10T08:12:33.990Z,99.99
2017-07-10T08:17:30.874Z,99.99
2017-07-10T08:22:26.545Z,99.99
2017-07-10T08:27:23.700Z,99.99
2017-07-10T08:32:20.482Z,99.99
2017-07-10T08:37:16.034Z,99.99
2017-07-10T08:42:13.488Z,99.99
2017-07-10T08:47:09.054Z,99.99
2017-07-10T08:52:06.080Z,99.99
2017-07-10T08:57:02.208Z,99.99
2017-07-10T09:01:58.307Z,99.99
2017-07-10T09:06:54.467Z,99.99
2017-07-10T09:11:52.493Z,99.99
2017-07-10T09:16:48.685Z,99.99
2017-07-10T09:21:45.245Z,99.99
2017-07-10T09:26:41.688Z,99.99
2017-07-10T09:31:37.973Z,99.99
2017-07-10T09:36:34.042Z,99.99
2017-07-10T09:41:32.482Z,99.99
2017-07-10T09:46:30.573Z,99.99
2017-07-10T09:51:27.901Z,99.99
2017-07-10T09:56:23.835Z,99.99
2017-07-10T10:01:20.536Z,97.96
2017-07-10T10:06:18.377Z,97.09
2017-07-10T10:11:17.083Z,94.96
2017-07-10T10:16:15.452Z,90.80
2017-07-10T10:21:12.674Z,90.61
2017-07-10T10:26:09.672Z,88.13
2017-07-10T10:31:07.005Z,87.12
2017-07-10T10:36:04.180Z,86.82
2017-07-10T10:40:58.747Z,85.72
2017-07-10T10:45:54.127Z,86.69
2017-07-10T10:50:49.269Z,90.37
2017-07-10T10:55:45.511Z,88.87
2017-07-10T11:00:40.778Z,88.39
2017-07-10T11:05:36.752Z,88.48
2017-07-10T11:10:33.697Z,89.25
2017-07-10T11:15:30.444Z,90.12
2017-07-10T11:20:25.965Z,89.45
2017-07-10T11:25:22.107Z,90.41
2017-07-10T11:30:20.516Z,88.71
2017-07-10T11:35:16.007Z,88.43
2017-07-10T11:40:12.040Z,88.23
2017-07-10T11:45:08.106Z,87.07
2017-07-10T11:50:04.093Z,86.69
2017-07-10T11:54:59.719Z,88.48
2017-07-10T11:59:57.148Z,88.33
2017-07-10T12:04:54.222Z,89.15
2017-07-10T12:09:50.033Z,91.24
2017-07-10T12:14:45.366Z,90.17
2017-07-10T12:19:42.305Z,90.22
2017-07-10T12:24:38.264Z,89.54
2017-07-10T12:29:36.029Z,88.91
2017-07-10T12:34:33.185Z,88.37
2017-07-10T12:39:30.433Z,88.47
2017-07-10T12:44:29.387Z,85.28
2017-07-10T12:49:23.619Z,87.12
2017-07-10T12:54:19.451Z,87.46
2017-07-10T12:59:16.521Z,86.44
2017-07-10T13:04:13.475Z,84.99
2017-07-10T13:09:07.797Z,85.57
2017-07-10T13:14:03.017Z,88.13
2017-07-10T13:18:58.288Z,91.05
2017-07-10T13:23:53.791Z,94.72
2017-07-10T13:28:49.365Z,99.99
2017-07-10T13:33:45.135Z,99.99
2017-07-10T13:38:42.290Z,99.99
2017-07-10T13:43:40.862Z,98.54
2017-07-10T13:48:38.210Z,94.47
2017-07-10T13:53:36.058Z,96.26
2017-07-10T13:58:33.825Z,96.45
2017-07-10T14:03:29.944Z,95.20
2017-07-10T14:08:27.274Z,93.51
2017-07-10T14:13:23.971Z,92.63
2017-07-10T14:18:19.258Z,91.32
2017-07-10T14:23:14.832Z,90.75
2017-07-10T14:28:11.131Z,91.72
2017-07-10T14:33:07.208Z,93.94
2017-07-10T14:38:04.269Z,92.58
2017-07-10T14:43:00.706Z,92.30
2017-07-10T14:47:56.352Z,90.36
2017-07-10T14:52:52.338Z,90.07
2017-07-10T14:57:48.778Z,89.29
2017-07-10T15:02:44.871Z,88.71
2017-07-10T15:07:40.722Z,91.58
2017-07-10T15:12:37.472Z,91.72
2017-07-10T15:17:35.947Z,93.08
2017-07-10T15:22:30.946Z,91.28
2017-07-10T15:27:27.341Z,91.91
2017-07-10T15:32:24.188Z,91.28
2017-07-10T15:37:21.286Z,91.28
2017-07-10T15:42:19.461Z,92.59
2017-07-10T15:47:14.677Z,91.91
2017-07-10T15:52:11.646Z,90.66
2017-07-10T15:57:12.866Z,90.61
2017-07-10T16:02:11.681Z,89.69
2017-07-10T16:07:08.664Z,87.76
2017-07-10T16:12:05.738Z,87.41
2017-07-10T16:17:01.481Z,87.03
2017-07-10T16:21:59.123Z,86.41
2017-07-10T16:26:56.550Z,87.95
2017-07-10T16:31:53.248Z,90.47
2017-07-10T16:36:50.352Z,92.40
2017-07-10T16:41:48.095Z,91.43
2017-07-10T16:46:44.544Z,93.03
2017-07-10T16:51:41.052Z,93.23
2017-07-10T16:56:36.680Z,92.83
2017-07-10T17:01:32.449Z,99.99
2017-07-10T17:06:43.877Z,99.99
2017-07-10T17:11:36.831Z,99.99
2017-07-10T17:16:34.400Z,99.99
2017-07-10T17:21:29.911Z,99.99
2017-07-10T17:26:26.942Z,99.99
2017-07-10T17:31:22.674Z,99.99
2017-07-10T17:36:19.784Z,99.99
2017-07-10T17:41:15.469Z,99.99
2017-07-10T17:46:13.293Z,99.99
2017-07-10T17:51:09.068Z,99.99
2017-07-10T17:56:04.797Z,99.99
2017-07-10T18:01:00.553Z,99.99
2017-07-10T18:05:57.249Z,99.99
2017-07-10T18:10:52.910Z,99.99
2017-07-10T18:15:49.655Z,99.99
2017-07-10T18:20:46.072Z,99.99
2017-07-10T18:25:41.806Z,99.99
2017-07-10T18:30:38.313Z,99.99
2017-07-10T18:35:34.241Z,99.99
2017-07-10T18:40:30.394Z,99.99
2017-07-10T18:45:26.230Z,99.99
2017-07-10T18:50:22.302Z,99.99
2017-07-10T18:55:18.255Z,99.99
2017-07-10T19:00:15.236Z,99.99
2017-07-10T19:05:11.829Z,99.99
2017-07-10T19:10:07.334Z,99.99
2017-07-10T19:15:03.222Z,99.99
2017-07-10T19:20:00.167Z,99.99
2017-07-10T19:24:56.369Z,99.99
2017-07-10T19:29:51.823Z,99.99
2017-07-10T19:34:47.726Z,99.99
2017-07-10T19:39:43.679Z,99.99
2017-07-10T19:44:39.463Z,99.99
2017-07-10T19:49:35.445Z,99.99
2017-07-10T19:54:32.576Z,99.99
2017-07-10T19:59:28.367Z,99.99
2017-07-10T20:04:24.623Z,99.99
2017-07-10T20:09:20.915Z,99.99
2017-07-10T20:14:17.816Z,99.99
2017-07-10T20:19:13.605Z,99.99
2017-07-10T20:24:09.707Z,99.99
2017-07-10T20:29:05.490Z,99.99
2017-07-10T20:34:02.284Z,99.99
2017-07-10T20:38:58.051Z,99.99
2017-07-10T20:43:53.964Z,99.99
2017-07-10T20:48:49.736Z,99.99
2017-07-10T20:53:45.645Z,99.99
2017-07-10T20:58:42.610Z,99.99
2017-07-10T21:03:38.737Z,99.99
2017-07-10T21:08:34.517Z,99.99
2017-07-10T21:13:30.456Z,99.99
2017-07-10T21:18:27.164Z,99.99
2017-07-10T21:23:22.728Z,99.99
2017-07-10T21:28:18.752Z,99.99
2017-07-10T21:33:14.829Z,99.99
2017-07-10T21:38:10.610Z,99.99
2017-07-10T21:43:07.727Z,99.99
2017-07-10T21:48:04.378Z,99.99
2017-07-10T21:52:59.883Z,99.99
2017-07-10T21:57:58.144Z,99.99
2017-07-10T22:02:53.792Z,99.99
2017-07-10T22:07:49.512Z,99.99
2017-07-10T22:12:45.838Z,99.99
2017-07-10T22:17:43.029Z,99.99
2017-07-10T22:22:39.546Z,99.99
2017-07-10T22:27:35.356Z,99.99
2017-07-10T22:32:31.323Z,99.99
2017-07-10T22:37:28.996Z,99.99
2017-07-10T22:42:24.423Z,99.99
2017-07-10T22:47:20.383Z,99.99
2017-07-10T22:52:17.042Z,99.99
2017-07-10T22:57:14.581Z,99.99
2017-07-10T23:02:10.219Z,99.99
2017-07-10T23:07:05.849Z,99.99
2017-07-10T23:12:03.364Z,99.99
2017-07-10T23:16:58.840Z,99.99
2017-07-10T23:21:55.093Z,99.99
2017-07-10T23:26:50.904Z,99.99
2017-07-10T23:31:48.311Z,99.99
2017-07-10T23:36:45.974Z,99.99
2017-07-10T23:41:42.219Z,99.99
2017-07-10T23:46:38.772Z,99.99
2017-07-10T23:51:34.568Z,99.99
2017-07-10T23:56:30.207Z,99.99
